Notice: Undefined index: station in /home3/dimtiris/public_html/webApp/metar/index.php on line 4

Metar

Weather conditions for all airports of the world. Just type the ICAO code of an airport.

LGAV 252150Z VRB02KT 9999 FEW030 SCT180 24/15 Q1011 NOSIG

STATION LGAV
OBSERVED Fri Jul 25, 15:50 MDT
NOW Fri Jul 25, 16:17 MDT
AGE 27 min ago
WIND varies at 2 mph
VISIBILITY 16 miles
CONDITIONS
CLOUDS scattered clouds
TEMP 75°F (24°C)
DEWPT 59°F (15°C)
HUMIDITY 57%
BAROMETER 1011 hPa (29.85 in Hg)

Get weather info from other station:

Some ICAO codes to try: